createdAt,value
2018-04-14T00:01:37.439Z,8.50
2018-04-14T00:02:37.009Z,8.30
2018-04-14T00:04:35.489Z,9.10
2018-04-14T00:05:35.100Z,8.40
2018-04-14T00:07:33.543Z,8.80
2018-04-14T00:08:33.599Z,8.60
2018-04-14T00:10:30.960Z,11.40
2018-04-14T00:11:30.963Z,10.10
2018-04-14T00:13:27.925Z,11.20
2018-04-14T00:14:27.425Z,9.90
2018-04-14T00:16:24.881Z,10.10
2018-04-14T00:17:24.859Z,10.20
2018-04-14T00:19:22.842Z,9.30
2018-04-14T00:20:23.301Z,9.40
2018-04-14T00:22:19.715Z,9.70
2018-04-14T00:23:18.697Z,10.10
2018-04-14T00:25:18.667Z,9.60
2018-04-14T00:26:16.771Z,9.10
2018-04-14T00:28:14.751Z,8.60
2018-04-14T00:29:14.727Z,9.20
2018-04-14T00:31:14.179Z,9.70
2018-04-14T00:32:14.179Z,9.80
2018-04-14T00:34:10.641Z,11.50
2018-04-14T00:35:11.150Z,11.20
2018-04-14T00:37:09.091Z,10.20
2018-04-14T00:38:09.070Z,9.70
2018-04-14T00:40:06.569Z,9.40
2018-04-14T00:41:07.023Z,10.40
2018-04-14T00:43:04.991Z,9.10
2018-04-14T00:44:04.566Z,9.30
2018-04-14T00:46:03.033Z,9.30
2018-04-14T00:47:02.511Z,10.00
2018-04-14T00:49:01.968Z,8.80
2018-04-14T00:50:00.968Z,9.10
2018-04-14T00:51:58.879Z,9.40
2018-04-14T00:52:58.456Z,9.10
2018-04-14T00:54:56.430Z,10.60
2018-04-14T00:55:56.393Z,9.70
2018-04-14T00:57:54.862Z,10.00
2018-04-14T00:58:54.336Z,10.10
2018-04-14T01:00:53.821Z,10.00
2018-04-14T01:01:53.349Z,10.50
2018-04-14T01:03:50.348Z,10.00
2018-04-14T01:04:50.340Z,10.50
2018-04-14T01:06:48.354Z,10.40
2018-04-14T01:07:48.802Z,9.90
2018-04-14T01:09:46.776Z,10.60
2018-04-14T01:10:46.221Z,9.70
2018-04-14T01:12:44.215Z,10.40
2018-04-14T01:13:44.687Z,9.50
2018-04-14T01:15:42.113Z,10.90
2018-04-14T01:16:42.618Z,11.30
2018-04-14T01:18:40.591Z,11.50
2018-04-14T01:19:40.024Z,11.20
2018-04-14T01:21:39.964Z,10.70
2018-04-14T01:22:38.092Z,11.00
2018-04-14T01:24:36.024Z,11.20
2018-04-14T01:25:34.045Z,10.80
2018-04-14T01:27:33.474Z,11.80
2018-04-14T01:28:31.974Z,12.20
2018-04-14T01:30:30.429Z,11.60
2018-04-14T01:31:30.948Z,11.50
2018-04-14T01:33:28.056Z,11.60
2018-04-14T01:34:28.046Z,12.60
2018-04-14T01:36:26.143Z,12.70
2018-04-14T01:37:26.162Z,12.10
2018-04-14T01:39:24.593Z,11.60
2018-04-14T01:40:24.020Z,11.40
2018-04-14T01:42:22.028Z,12.60
2018-04-14T01:43:21.972Z,13.20
2018-04-14T01:45:20.470Z,12.40
2018-04-14T01:46:20.032Z,13.20
2018-04-14T01:48:16.496Z,12.90
2018-04-14T01:49:16.514Z,12.90
2018-04-14T01:51:15.451Z,12.60
2018-04-14T01:52:14.041Z,12.50
2018-04-14T01:54:12.548Z,12.40
2018-04-14T01:55:12.014Z,12.50
2018-04-14T01:57:09.952Z,12.30
2018-04-14T01:58:09.009Z,11.90
2018-04-14T02:00:03.943Z,13.50
2018-04-14T02:01:04.471Z,12.60
2018-04-14T02:03:00.851Z,12.00
2018-04-14T02:04:01.353Z,12.90
2018-04-14T02:05:56.304Z,12.70
2018-04-14T02:06:57.285Z,14.40
2018-04-14T02:08:54.246Z,13.50
2018-04-14T02:09:53.805Z,13.20
2018-04-14T02:11:52.262Z,13.10
2018-04-14T02:12:51.779Z,13.50
2018-04-14T02:14:49.706Z,12.80
2018-04-14T02:15:50.192Z,12.40
2018-04-14T02:17:47.647Z,12.60
2018-04-14T02:18:47.629Z,12.10
2018-04-14T02:20:48.110Z,11.80
2018-04-14T02:21:45.685Z,12.10
2018-04-14T02:23:44.161Z,11.70
2018-04-14T02:24:43.628Z,10.80
2018-04-14T02:26:40.617Z,12.00
2018-04-14T02:27:39.614Z,11.40
2018-04-14T02:29:36.091Z,10.60
2018-04-14T02:30:35.521Z,10.10
2018-04-14T02:32:33.492Z,10.80
2018-04-14T02:33:33.467Z,11.40
2018-04-14T02:35:32.440Z,10.90
2018-04-14T02:36:31.419Z,11.30
2018-04-14T02:38:29.409Z,10.70
2018-04-14T02:39:29.374Z,10.80
2018-04-14T02:41:27.834Z,11.20
2018-04-14T02:42:27.822Z,10.50
2018-04-14T02:44:25.779Z,10.70
2018-04-14T02:45:25.255Z,10.10
2018-04-14T02:47:23.227Z,11.00
2018-04-14T02:48:23.213Z,10.10
2018-04-14T02:50:23.667Z,9.40
2018-04-14T02:51:24.156Z,9.70
2018-04-14T02:53:23.581Z,9.80
2018-04-14T02:54:21.691Z,9.30
2018-04-14T02:56:20.658Z,9.40
2018-04-14T02:57:20.152Z,9.70
2018-04-14T02:59:16.606Z,9.10
2018-04-14T03:00:15.609Z,9.40
2018-04-14T03:02:11.521Z,9.70
2018-04-14T03:03:12.442Z,9.70
2018-04-14T03:05:09.518Z,9.00
2018-04-14T03:06:09.965Z,9.20
2018-04-14T03:08:08.920Z,8.60
2018-04-14T03:09:07.927Z,8.80
2018-04-14T03:11:05.338Z,8.90
2018-04-14T03:12:05.334Z,8.60
2018-04-14T03:14:03.822Z,8.90
2018-04-14T03:15:03.425Z,9.40
2018-04-14T03:17:01.883Z,8.90
2018-04-14T03:18:01.505Z,9.40
2018-04-14T03:20:00.435Z,9.30
2018-04-14T03:21:00.941Z,8.70
2018-04-14T03:22:55.364Z,8.60
2018-04-14T03:23:56.801Z,8.80
2018-04-14T03:25:53.324Z,8.90
2018-04-14T03:26:52.332Z,9.10
2018-04-14T03:28:48.810Z,9.10
2018-04-14T03:29:47.797Z,9.20
2018-04-14T03:31:43.205Z,8.20
2018-04-14T03:32:44.206Z,8.40
2018-04-14T03:34:41.212Z,8.00
2018-04-14T03:35:41.139Z,8.40
2018-04-14T03:37:39.615Z,7.90
2018-04-14T03:38:39.110Z,7.70
2018-04-14T03:40:37.563Z,8.70
2018-04-14T03:41:37.034Z,8.40
2018-04-14T03:43:33.006Z,8.10
2018-04-14T03:44:32.982Z,8.00
2018-04-14T03:46:30.924Z,7.70
2018-04-14T03:47:30.931Z,7.90
2018-04-14T03:49:30.870Z,7.50
2018-04-14T03:50:28.939Z,7.90
2018-04-14T03:52:28.402Z,7.80
2018-04-14T03:53:27.893Z,7.40
2018-04-14T03:55:25.353Z,7.10
2018-04-14T03:56:25.352Z,8.10
2018-04-14T03:58:22.871Z,7.30
2018-04-14T03:59:22.795Z,8.00
2018-04-14T04:01:21.259Z,7.30
2018-04-14T04:02:21.739Z,7.40
2018-04-14T04:04:18.711Z,7.90
2018-04-14T04:05:18.702Z,7.90
2018-04-14T04:07:17.634Z,7.50
2018-04-14T04:08:16.741Z,7.00
2018-04-14T04:10:15.706Z,7.60
2018-04-14T04:11:15.210Z,6.90
2018-04-14T04:13:12.758Z,7.40
2018-04-14T04:14:12.775Z,7.10
2018-04-14T04:16:09.216Z,7.00
2018-04-14T04:17:09.205Z,6.90
2018-04-14T04:19:06.581Z,7.40
2018-04-14T04:20:06.591Z,7.00
2018-04-14T04:22:05.029Z,7.10
2018-04-14T04:23:04.517Z,6.90
2018-04-14T04:25:02.481Z,6.80
2018-04-14T04:26:02.464Z,6.70
2018-04-14T04:28:00.923Z,6.80
2018-04-14T04:29:00.397Z,6.70
2018-04-14T04:30:58.390Z,7.00
2018-04-14T04:31:58.352Z,7.40
2018-04-14T04:33:57.291Z,6.70
2018-04-14T04:34:56.278Z,6.90
2018-04-14T04:36:54.141Z,7.00
2018-04-14T04:37:52.721Z,6.70
2018-04-14T04:39:49.162Z,7.20
2018-04-14T04:40:48.187Z,7.10
2018-04-14T04:42:46.600Z,6.90
2018-04-14T04:43:46.250Z,7.30
2018-04-14T04:45:45.712Z,7.30
2018-04-14T04:46:44.309Z,7.90
2018-04-14T04:48:40.238Z,6.90
2018-04-14T04:49:40.765Z,6.90
2018-04-14T04:51:36.222Z,7.20
2018-04-14T04:52:36.145Z,7.10
2018-04-14T04:54:34.161Z,6.80
2018-04-14T04:55:34.087Z,7.00
2018-04-14T04:57:32.535Z,7.40
2018-04-14T04:58:32.045Z,7.60
2018-04-14T05:00:28.981Z,7.10
2018-04-14T05:01:28.019Z,6.60
2018-04-14T05:03:26.916Z,6.30
2018-04-14T05:04:25.891Z,6.80
2018-04-14T05:06:21.848Z,6.60
2018-04-14T05:08:37.815Z,7.00
2018-04-14T05:09:38.291Z,7.30
2018-04-14T05:11:33.683Z,7.20
2018-04-14T05:12:33.696Z,6.90
2018-04-14T05:14:33.069Z,7.60
2018-04-14T05:15:31.652Z,7.30
2018-04-14T05:17:29.623Z,7.40
2018-04-14T05:18:28.103Z,7.20
2018-04-14T05:20:25.561Z,7.10
2018-04-14T05:21:25.537Z,7.10
2018-04-14T05:23:24.998Z,7.30
2018-04-14T05:24:23.473Z,7.70
2018-04-14T05:26:21.461Z,7.70
2018-04-14T05:27:22.922Z,6.90
2018-04-14T05:29:21.363Z,8.00
2018-04-14T05:30:19.453Z,7.60
2018-04-14T05:32:15.373Z,7.90
2018-04-14T05:33:15.378Z,7.30
2018-04-14T05:35:13.840Z,7.10
2018-04-14T05:36:13.540Z,7.50
2018-04-14T05:38:12.009Z,6.60
2018-04-14T05:39:12.488Z,6.70
2018-04-14T05:41:10.067Z,6.90
2018-04-14T05:42:09.718Z,7.00
2018-04-14T05:44:04.147Z,6.50
2018-04-14T05:45:04.136Z,6.70
2018-04-14T05:47:00.060Z,6.60
2018-04-14T05:48:00.565Z,7.90
2018-04-14T05:49:56.052Z,7.10
2018-04-14T05:50:56.031Z,7.00
2018-04-14T05:52:54.969Z,7.10
2018-04-14T05:53:54.959Z,7.20
2018-04-14T05:55:50.051Z,7.00
2018-04-14T05:56:50.575Z,7.10
2018-04-14T05:58:49.402Z,7.40
2018-04-14T05:59:47.968Z,6.50
2018-04-14T06:01:48.377Z,7.60
2018-04-14T06:02:47.381Z,7.50
2018-04-14T06:04:45.322Z,6.70
2018-04-14T06:05:45.837Z,7.70
2018-04-14T06:07:43.441Z,6.80
2018-04-14T06:08:41.860Z,8.00
2018-04-14T06:10:38.817Z,7.20
2018-04-14T06:11:38.744Z,7.40
2018-04-14T06:13:35.762Z,7.10
2018-04-14T06:14:35.759Z,7.30
2018-04-14T06:16:36.209Z,7.20
2018-04-14T06:17:36.720Z,7.20
2018-04-14T06:19:34.271Z,7.60
2018-04-14T06:20:35.158Z,7.20
2018-04-14T06:22:43.716Z,7.00
2018-04-14T06:23:41.235Z,7.30
2018-04-14T06:25:39.159Z,7.60
2018-04-14T06:26:39.701Z,8.00
2018-04-14T06:28:35.091Z,8.10
2018-04-14T06:29:35.090Z,7.40
2018-04-14T06:31:31.055Z,7.60
2018-04-14T06:32:31.033Z,7.90
2018-04-14T06:34:26.959Z,8.00
2018-04-14T06:35:26.964Z,7.30
2018-04-14T06:37:23.921Z,7.60
2018-04-14T06:39:38.917Z,8.50
2018-04-14T06:40:39.366Z,8.80
2018-04-14T06:42:39.295Z,10.00
2018-04-14T06:43:40.839Z,9.30
2018-04-14T06:45:35.262Z,9.30
2018-04-14T06:46:35.294Z,10.50
2018-04-14T06:48:31.273Z,9.90
2018-04-14T06:50:49.709Z,10.70
2018-04-14T06:51:49.192Z,10.70
2018-04-14T06:53:45.175Z,10.70
2018-04-14T06:54:45.651Z,12.10
2018-04-14T06:56:42.130Z,11.50
2018-04-14T06:57:41.132Z,12.20
2018-04-14T06:59:37.602Z,13.90
2018-04-14T07:00:37.597Z,14.30
2018-04-14T07:02:33.022Z,13.60
2018-04-14T07:03:33.509Z,13.40
2018-04-14T07:05:31.411Z,13.20
2018-04-14T07:06:28.968Z,13.60
2018-04-14T07:08:26.858Z,13.40
2018-04-14T07:09:25.404Z,13.10
2018-04-14T07:11:21.403Z,12.80
2018-04-14T07:12:21.360Z,13.40
2018-04-14T07:14:17.725Z,13.50
2018-04-14T07:15:16.790Z,13.40
2018-04-14T07:17:13.751Z,15.30
2018-04-14T07:18:13.757Z,16.00
2018-04-14T07:20:09.208Z,17.20
2018-04-14T07:21:08.708Z,16.80
2018-04-14T07:23:05.182Z,14.40
2018-04-14T07:24:04.642Z,16.00
2018-04-14T07:26:00.612Z,17.50
2018-04-14T07:27:01.593Z,17.90
2018-04-14T07:28:57.084Z,16.30
2018-04-14T07:29:57.082Z,17.40
2018-04-14T07:31:54.970Z,17.80
2018-04-14T07:32:54.488Z,16.30
2018-04-14T07:34:52.931Z,16.30
2018-04-14T07:35:52.554Z,15.90
2018-04-14T07:37:48.511Z,16.30
2018-04-14T07:38:48.511Z,16.60
2018-04-14T07:40:44.483Z,17.20
2018-04-14T07:41:44.456Z,17.90
2018-04-14T07:43:42.930Z,22.00
2018-04-14T07:44:42.402Z,21.20
2018-04-14T07:46:39.363Z,25.30
2018-04-14T07:47:39.363Z,24.10
2018-04-14T07:49:34.284Z,24.20
2018-04-14T07:50:34.284Z,24.80
2018-04-14T07:52:30.229Z,25.00
2018-04-14T07:53:30.753Z,23.00
2018-04-14T07:55:26.212Z,23.90
2018-04-14T07:56:26.173Z,25.60
2018-04-14T07:58:22.126Z,25.30
2018-04-14T07:59:22.125Z,26.50
2018-04-14T08:01:18.074Z,24.90
2018-04-14T08:02:18.064Z,25.80
2018-04-14T08:04:14.041Z,27.50
2018-04-14T08:05:14.049Z,27.40
2018-04-14T08:07:10.987Z,27.70
2018-04-14T08:08:10.485Z,27.00
2018-04-14T08:10:05.950Z,25.60
2018-04-14T08:11:05.942Z,26.80
2018-04-14T08:13:02.409Z,25.80
2018-04-14T08:14:02.403Z,27.30
2018-04-14T08:15:57.854Z,28.70
2018-04-14T08:16:57.832Z,30.30
2018-04-14T08:18:54.792Z,29.20
2018-04-14T08:19:54.303Z,28.40
2018-04-14T08:21:50.714Z,31.00
2018-04-14T08:22:49.703Z,30.10
2018-04-14T08:24:46.209Z,30.70
2018-04-14T08:25:47.155Z,30.10
2018-04-14T08:27:42.155Z,31.30
2018-04-14T08:28:42.117Z,30.40
2018-04-14T08:30:38.063Z,31.40
2018-04-14T08:31:37.658Z,30.80
2018-04-14T08:33:33.626Z,30.20
2018-04-14T08:34:35.110Z,29.30
2018-04-14T08:36:32.566Z,29.30
2018-04-14T08:37:33.572Z,31.00
2018-04-14T08:39:28.137Z,30.20
2018-04-14T08:40:27.595Z,30.50
2018-04-14T08:42:23.572Z,30.60
2018-04-14T08:43:23.542Z,31.00
2018-04-14T08:45:19.739Z,29.80
2018-04-14T08:46:20.008Z,30.30
2018-04-14T08:48:15.969Z,30.60
2018-04-14T08:49:16.948Z,34.50
2018-04-14T08:51:12.894Z,38.20
2018-04-14T08:52:11.378Z,37.10
2018-04-14T08:54:08.762Z,38.20
2018-04-14T08:55:07.326Z,38.40
2018-04-14T08:57:04.284Z,38.70
2018-04-14T08:58:03.807Z,36.00
2018-04-14T08:59:59.258Z,35.90
2018-04-14T09:00:59.239Z,37.30
2018-04-14T09:02:55.700Z,36.70
2018-04-14T09:03:55.196Z,37.00
2018-04-14T09:05:52.672Z,38.20
2018-04-14T09:06:52.596Z,40.00
2018-04-14T09:08:47.076Z,38.20
2018-04-14T09:09:47.072Z,37.50
2018-04-14T09:11:43.531Z,38.80
2018-04-14T09:12:43.020Z,38.60
2018-04-14T09:14:39.969Z,39.70
2018-04-14T09:15:39.894Z,39.10
2018-04-14T09:17:34.952Z,38.30
2018-04-14T09:18:34.927Z,39.20
2018-04-14T09:20:31.887Z,40.40
2018-04-14T09:21:30.882Z,37.70
2018-04-14T09:23:27.335Z,39.00
2018-04-14T09:24:28.341Z,36.90
2018-04-14T09:26:23.823Z,37.50
2018-04-14T09:27:22.783Z,38.30
2018-04-14T09:29:18.762Z,35.80
2018-04-14T09:30:20.249Z,36.10
2018-04-14T09:32:15.165Z,34.30
2018-04-14T09:33:15.187Z,35.40
2018-04-14T09:35:10.630Z,36.00
2018-04-14T09:36:10.602Z,37.70
2018-04-14T09:38:06.545Z,40.70
2018-04-14T09:39:07.068Z,40.00
2018-04-14T09:41:04.522Z,39.50
2018-04-14T09:42:02.538Z,38.60
2018-04-14T09:43:59.987Z,43.00
2018-04-14T09:44:58.480Z,44.00
2018-04-14T09:46:54.463Z,43.50
2018-04-14T09:47:54.948Z,44.80
2018-04-14T09:49:50.364Z,44.10
2018-04-14T09:50:50.886Z,44.70
2018-04-14T09:52:46.347Z,45.70
2018-04-14T09:53:46.328Z,43.90
2018-04-14T09:55:42.793Z,41.70
2018-04-14T09:56:42.280Z,44.00
2018-04-14T09:58:39.274Z,43.60
2018-04-14T09:59:39.196Z,41.00
2018-04-14T10:01:35.167Z,41.50
2018-04-14T10:02:35.171Z,41.60
2018-04-14T10:04:31.113Z,41.50
2018-04-14T10:05:31.128Z,42.20
2018-04-14T10:07:29.081Z,39.70
2018-04-14T10:08:27.094Z,40.30
2018-04-14T10:10:24.090Z,43.40
2018-04-14T10:11:24.063Z,44.60
2018-04-14T10:13:19.047Z,45.30
2018-04-14T10:14:19.051Z,42.20
2018-04-14T10:16:15.077Z,41.70
2018-04-14T10:17:15.524Z,44.50
2018-04-14T10:19:12.474Z,41.10
2018-04-14T10:20:10.932Z,42.80
2018-04-14T10:22:06.922Z,40.40
2018-04-14T10:23:06.883Z,40.00
2018-04-14T10:25:02.829Z,41.00
2018-04-14T10:26:03.344Z,42.50
2018-04-14T10:27:58.822Z,41.00
2018-04-14T10:28:58.806Z,39.90
2018-04-14T10:30:55.766Z,41.50
2018-04-14T10:31:55.260Z,40.60
2018-04-14T10:33:50.744Z,39.60
2018-04-14T10:34:51.245Z,40.70
2018-04-14T10:36:49.237Z,40.30
2018-04-14T10:37:49.689Z,38.00
2018-04-14T10:39:44.653Z,40.50
2018-04-14T10:40:45.635Z,40.60
2018-04-14T10:42:40.593Z,40.50
2018-04-14T10:43:41.122Z,40.70
2018-04-14T10:45:36.566Z,43.90
2018-04-14T10:46:36.551Z,42.70
2018-04-14T10:48:32.535Z,43.80
2018-04-14T10:49:32.546Z,44.80
2018-04-14T10:51:29.001Z,46.70
2018-04-14T10:52:28.490Z,44.10
2018-04-14T10:54:24.963Z,44.00
2018-04-14T10:55:24.956Z,45.20
2018-04-14T10:57:20.388Z,45.00
2018-04-14T10:58:20.402Z,42.80
2018-04-14T11:00:19.875Z,42.70
2018-04-14T11:01:19.376Z,42.10
2018-04-14T11:03:15.453Z,38.60
2018-04-14T11:04:14.952Z,40.30
2018-04-14T11:06:10.943Z,40.90
2018-04-14T11:07:10.414Z,39.90
2018-04-14T11:09:06.884Z,38.40
2018-04-14T11:10:06.869Z,39.90
2018-04-14T11:12:02.343Z,38.40
2018-04-14T11:13:02.321Z,39.40
2018-04-14T11:15:00.800Z,42.90
2018-04-14T11:16:00.322Z,43.30
2018-04-14T11:17:57.273Z,39.60
2018-04-14T11:18:56.258Z,39.60
2018-04-14T11:20:53.230Z,35.20
2018-04-14T11:23:10.211Z,37.60
2018-04-14T11:26:05.195Z,37.10
2018-04-14T11:27:04.208Z,36.70
2018-04-14T11:29:00.182Z,35.00
2018-04-14T11:30:00.671Z,36.40
2018-04-14T11:31:56.074Z,37.10
2018-04-14T11:32:56.100Z,36.70
2018-04-14T11:34:52.565Z,32.30
2018-04-14T11:35:52.046Z,32.70
2018-04-14T11:37:45.503Z,33.30
2018-04-14T11:38:45.992Z,33.00
2018-04-14T11:40:41.447Z,34.40
2018-04-14T11:41:41.464Z,32.60
2018-04-14T11:43:37.431Z,34.60
2018-04-14T11:44:37.423Z,34.70
2018-04-14T11:46:34.399Z,35.50
2018-04-14T11:47:33.386Z,34.80
2018-04-14T11:49:29.312Z,32.10
2018-04-14T11:50:30.274Z,34.50
2018-04-14T11:52:28.795Z,34.20
2018-04-14T11:53:27.411Z,35.40
2018-04-14T11:55:25.372Z,36.00
2018-04-14T11:56:23.393Z,35.50
2018-04-14T11:58:17.854Z,36.40
2018-04-14T11:59:18.350Z,35.10
2018-04-14T12:01:13.788Z,35.50
2018-04-14T12:02:13.813Z,36.50
2018-04-14T12:04:09.775Z,34.40
2018-04-14T12:05:09.773Z,37.40
2018-04-14T12:07:06.264Z,36.80
2018-04-14T12:08:06.230Z,35.30
2018-04-14T12:10:01.739Z,35.40
2018-04-14T12:11:02.190Z,36.60
2018-04-14T12:12:57.651Z,34.70
2018-04-14T12:13:57.669Z,33.90
2018-04-14T12:15:53.593Z,34.20
2018-04-14T12:16:54.608Z,36.30
2018-04-14T12:18:51.064Z,35.60
2018-04-14T12:19:49.532Z,34.40
2018-04-14T12:21:45.498Z,33.90
2018-04-14T12:22:45.516Z,35.60
2018-04-14T12:24:41.484Z,40.60
2018-04-14T12:25:41.475Z,40.50
2018-04-14T12:27:37.449Z,41.40
2018-04-14T12:28:37.949Z,41.20
2018-04-14T12:30:33.412Z,42.10
2018-04-14T12:31:34.405Z,42.20
2018-04-14T12:33:29.874Z,40.80
2018-04-14T12:34:30.304Z,38.50
2018-04-14T12:36:26.349Z,39.40
2018-04-14T12:37:25.361Z,38.80
2018-04-14T12:39:21.332Z,37.20
2018-04-14T12:40:21.834Z,38.00
2018-04-14T12:42:17.277Z,38.80
2018-04-14T12:43:18.273Z,37.90
2018-04-14T12:45:13.276Z,41.30
2018-04-14T12:46:13.729Z,40.30
2018-04-14T12:48:10.184Z,36.80
2018-04-14T12:49:09.183Z,37.50
2018-04-14T12:51:05.153Z,39.40
2018-04-14T12:52:05.166Z,37.20
2018-04-14T12:54:01.118Z,39.10
2018-04-14T12:55:01.142Z,40.40
2018-04-14T12:56:57.106Z,39.50
2018-04-14T12:57:58.091Z,40.90
2018-04-14T12:59:53.556Z,40.40
2018-04-14T13:00:53.556Z,40.00
2018-04-14T13:02:49.019Z,41.60
2018-04-14T13:03:49.020Z,41.50
2018-04-14T13:05:48.972Z,39.50
2018-04-14T13:06:46.997Z,37.80
2018-04-14T13:08:43.453Z,37.50
2018-04-14T13:09:43.427Z,36.60
2018-04-14T13:11:39.386Z,36.60
2018-04-14T13:12:38.916Z,37.10
2018-04-14T13:14:38.382Z,35.00
2018-04-14T13:15:36.869Z,33.30
2018-04-14T13:17:35.910Z,34.20
2018-04-14T13:18:34.965Z,35.30
2018-04-14T13:20:33.412Z,34.70
2018-04-14T13:21:32.934Z,34.10
2018-04-14T13:23:34.381Z,37.40
2018-04-14T13:24:34.873Z,34.70
2018-04-14T13:26:29.375Z,34.00
2018-04-14T13:27:30.267Z,34.40
2018-04-14T13:29:27.283Z,31.80
2018-04-14T13:30:27.807Z,32.90
2018-04-14T13:32:25.295Z,32.40
2018-04-14T13:33:25.241Z,31.70
2018-04-14T13:35:25.682Z,35.90
2018-04-14T13:36:25.708Z,34.60
2018-04-14T13:38:30.223Z,34.50
2018-04-14T13:39:29.684Z,34.20
2018-04-14T13:41:27.138Z,34.20
2018-04-14T13:42:26.641Z,33.60
2018-04-14T13:44:23.629Z,34.40
2018-04-14T13:45:24.138Z,34.80
2018-04-14T13:47:20.552Z,35.20
2018-04-14T13:48:20.054Z,35.90
2018-04-14T13:50:16.016Z,34.90
2018-04-14T13:51:15.517Z,33.80
2018-04-14T13:53:15.996Z,35.20
2018-04-14T13:54:15.977Z,34.30
2018-04-14T13:56:12.924Z,36.10
2018-04-14T13:57:12.433Z,34.80
2018-04-14T13:59:10.423Z,32.40
2018-04-14T14:00:10.393Z,32.80
2018-04-14T14:02:06.813Z,32.10
2018-04-14T14:03:05.833Z,33.10
2018-04-14T14:05:03.284Z,32.30
2018-04-14T14:06:01.794Z,32.80
2018-04-14T14:07:59.728Z,33.30
2018-04-14T14:09:00.237Z,32.10
2018-04-14T14:10:58.208Z,32.70
2018-04-14T14:11:59.695Z,32.60
2018-04-14T14:13:58.807Z,35.30
2018-04-14T14:14:56.857Z,34.10
2018-04-14T14:16:54.768Z,36.20
2018-04-14T14:17:54.266Z,37.50
2018-04-14T14:19:51.741Z,34.70
2018-04-14T14:20:52.715Z,35.20
2018-04-14T14:22:49.814Z,36.10
2018-04-14T14:23:49.795Z,35.50
2018-04-14T14:25:49.266Z,35.30
2018-04-14T14:26:47.766Z,33.50
2018-04-14T14:28:48.260Z,35.70
2018-04-14T14:29:48.203Z,34.60
2018-04-14T14:31:48.178Z,35.40
2018-04-14T14:32:47.166Z,35.10
2018-04-14T14:34:44.766Z,35.00
2018-04-14T14:35:44.230Z,34.80
2018-04-14T14:37:42.185Z,34.00
2018-04-14T14:38:42.692Z,34.20
2018-04-14T14:40:41.673Z,33.70
2018-04-14T14:41:40.166Z,33.80
2018-04-14T14:43:38.641Z,32.80
2018-04-14T14:44:38.120Z,33.70
2018-04-14T14:46:38.614Z,32.10
2018-04-14T14:47:39.596Z,33.30
2018-04-14T14:49:36.593Z,32.30
2018-04-14T14:50:36.550Z,31.20
2018-04-14T14:52:34.522Z,30.90
2018-04-14T14:53:34.506Z,32.80
2018-04-14T14:55:30.498Z,31.30
2018-04-14T14:56:30.489Z,32.90
2018-04-14T14:58:28.430Z,32.80
2018-04-14T14:59:28.943Z,33.90
2018-04-14T15:01:26.926Z,33.50
2018-04-14T15:02:28.436Z,32.70
2018-04-14T15:04:24.011Z,30.60
2018-04-14T15:05:22.524Z,32.00
2018-04-14T15:07:19.015Z,33.30
2018-04-14T15:08:19.480Z,34.00
2018-04-14T15:10:14.486Z,34.30
2018-04-14T15:11:14.449Z,34.90
2018-04-14T15:13:10.922Z,33.00
2018-04-14T15:14:10.415Z,33.40
2018-04-14T15:16:06.405Z,33.40
2018-04-14T15:17:06.387Z,31.90
2018-04-14T15:19:02.320Z,31.40
2018-04-14T15:20:02.317Z,30.70
2018-04-14T15:21:59.305Z,32.60
2018-04-14T15:22:59.297Z,31.40
2018-04-14T15:24:56.764Z,32.00
2018-04-14T15:25:57.252Z,33.20
2018-04-14T15:27:53.230Z,32.40
2018-04-14T15:28:52.226Z,33.40
2018-04-14T15:30:51.724Z,32.60
2018-04-14T15:31:52.195Z,32.70
2018-04-14T15:33:48.697Z,31.60
2018-04-14T15:34:48.206Z,32.00
2018-04-14T15:36:44.191Z,32.00
2018-04-14T15:37:44.184Z,34.20
2018-04-14T15:39:42.158Z,32.20
2018-04-14T15:40:42.175Z,34.20
2018-04-14T15:42:40.141Z,31.40
2018-04-14T15:43:41.108Z,31.50
2018-04-14T15:45:38.199Z,31.00
2018-04-14T15:46:39.079Z,30.50
2018-04-14T15:48:36.262Z,30.60
2018-04-14T15:49:36.279Z,30.40
2018-04-14T15:51:33.238Z,30.00
2018-04-14T15:52:33.255Z,29.60
2018-04-14T15:54:30.217Z,30.00
2018-04-14T15:55:30.709Z,30.00
2018-04-14T15:57:30.160Z,30.20
2018-04-14T15:58:29.161Z,30.70
2018-04-14T16:00:27.244Z,29.10
2018-04-14T16:01:27.179Z,30.70
2018-04-14T16:03:22.758Z,29.30
2018-04-14T16:04:22.295Z,28.50
2018-04-14T16:06:18.218Z,29.00
2018-04-14T16:07:19.224Z,28.30
2018-04-14T16:09:16.745Z,28.00
2018-04-14T16:10:17.213Z,28.30
2018-04-14T16:12:15.259Z,28.20
2018-04-14T16:13:14.379Z,27.40
2018-04-14T16:15:12.478Z,26.20
2018-04-14T16:16:13.346Z,27.30
2018-04-14T16:18:08.947Z,26.80
2018-04-14T16:19:09.435Z,26.30
2018-04-14T16:21:04.422Z,25.90
2018-04-14T16:22:04.419Z,25.60
2018-04-14T16:24:03.360Z,27.50
2018-04-14T16:25:02.494Z,26.90
2018-04-14T16:27:01.460Z,24.10
2018-04-14T16:28:00.458Z,25.00
2018-04-14T16:29:56.928Z,25.90
2018-04-14T16:30:57.419Z,26.30
2018-04-14T16:32:52.413Z,26.30
2018-04-14T16:33:52.400Z,27.20
2018-04-14T16:35:49.347Z,25.80
2018-04-14T16:36:48.853Z,24.20
2018-04-14T16:38:44.274Z,25.10
2018-04-14T16:39:44.352Z,26.30
2018-04-14T16:41:40.269Z,24.80
2018-04-14T16:42:40.227Z,26.60
2018-04-14T16:44:36.702Z,24.90
2018-04-14T16:45:36.185Z,25.90
2018-04-14T16:47:32.179Z,25.50
2018-04-14T16:48:32.646Z,25.90
2018-04-14T16:50:28.143Z,25.60
2018-04-14T16:51:28.136Z,25.80
2018-04-14T16:53:24.148Z,24.80
2018-04-14T16:54:25.156Z,24.70
2018-04-14T16:56:20.111Z,24.80
2018-04-14T16:57:20.106Z,25.50
2018-04-14T16:59:16.006Z,23.40
2018-04-14T17:00:16.573Z,23.80
2018-04-14T17:02:13.973Z,24.20
2018-04-14T17:03:13.968Z,25.50
2018-04-14T17:05:12.071Z,22.10
2018-04-14T17:06:12.072Z,22.80
2018-04-14T17:08:10.550Z,22.50
2018-04-14T17:09:11.030Z,23.70
2018-04-14T17:11:06.153Z,25.40
2018-04-14T17:12:06.134Z,22.40
2018-04-14T17:14:04.611Z,23.90
2018-04-14T17:15:04.225Z,24.20
2018-04-14T17:17:03.202Z,21.30
2018-04-14T17:18:02.337Z,22.30
2018-04-14T17:19:58.296Z,23.30
2018-04-14T17:20:58.306Z,23.50
2018-04-14T17:22:56.291Z,23.40
2018-04-14T17:23:57.193Z,24.90
2018-04-14T17:25:53.276Z,21.90
2018-04-14T17:26:52.247Z,22.20
2018-04-14T17:28:48.223Z,24.40
2018-04-14T17:29:48.192Z,22.90
2018-04-14T17:31:46.111Z,24.40
2018-04-14T17:32:46.127Z,24.10
2018-04-14T17:34:42.639Z,23.90
2018-04-14T17:35:42.590Z,23.50
2018-04-14T17:37:38.044Z,24.40
2018-04-14T17:38:39.041Z,25.10
2018-04-14T17:40:35.009Z,25.20
2018-04-14T17:41:35.005Z,25.10
2018-04-14T17:43:29.994Z,24.30
2018-04-14T17:44:29.992Z,26.80
2018-04-14T17:46:29.453Z,24.40
2018-04-14T17:47:28.084Z,25.40
2018-04-14T17:49:24.075Z,24.90
2018-04-14T17:50:24.017Z,25.10
2018-04-14T17:52:21.971Z,25.20
2018-04-14T17:53:21.968Z,26.30
2018-04-14T17:55:17.983Z,27.20
2018-04-14T17:57:36.458Z,26.40
2018-04-14T17:58:36.056Z,25.40
2018-04-14T18:00:33.008Z,27.10
2018-04-14T18:01:32.997Z,28.10
2018-04-14T18:03:31.093Z,26.90
2018-04-14T18:04:31.977Z,24.70
2018-04-14T18:06:27.074Z,22.50
2018-04-14T18:07:27.042Z,23.20
2018-04-14T18:09:24.498Z,25.60
2018-04-14T18:10:23.004Z,25.10
2018-04-14T18:12:18.899Z,25.90
2018-04-14T18:13:18.914Z,26.70
2018-04-14T18:15:14.904Z,23.90
2018-04-14T18:16:14.873Z,23.80
2018-04-14T18:18:13.348Z,26.90
2018-04-14T18:19:12.959Z,27.80
2018-04-14T18:21:11.419Z,23.70
2018-04-14T18:22:10.903Z,23.70
2018-04-14T18:24:06.874Z,26.10
2018-04-14T18:25:06.865Z,24.40
2018-04-14T18:27:04.935Z,22.00
2018-04-14T18:28:06.831Z,25.30
2018-04-14T18:30:00.938Z,26.70
2018-04-14T18:31:00.961Z,24.30
2018-04-14T18:32:57.886Z,26.20
2018-04-14T18:33:57.384Z,23.90
2018-04-14T18:35:52.872Z,21.30
2018-04-14T18:36:52.853Z,22.00
2018-04-14T18:38:48.764Z,24.60
2018-04-14T18:39:50.220Z,23.90
2018-04-14T18:41:44.711Z,23.10
2018-04-14T18:42:44.774Z,22.20
2018-04-14T18:44:40.697Z,20.50
2018-04-14T18:45:40.699Z,20.10
2018-04-14T18:47:39.771Z,20.40
2018-04-14T18:48:39.588Z,20.90
2018-04-14T18:50:34.657Z,21.70
2018-04-14T18:51:34.627Z,21.00
2018-04-14T18:53:31.576Z,23.60
2018-04-14T18:54:30.589Z,22.30
2018-04-14T18:56:31.042Z,21.50
2018-04-14T18:57:28.541Z,21.00
2018-04-14T18:59:27.515Z,24.30
2018-04-14T19:00:26.590Z,22.00
2018-04-14T19:02:23.102Z,20.80
2018-04-14T19:03:22.567Z,22.50
2018-04-14T19:05:22.024Z,21.40
2018-04-14T19:06:20.676Z,21.20
2018-04-14T19:08:19.185Z,23.00
2018-04-14T19:09:19.640Z,24.30
2018-04-14T19:11:14.723Z,24.70
2018-04-14T19:12:15.198Z,23.80
2018-04-14T19:14:14.153Z,25.60